createdAt,value
2019-02-21T00:00:57.751Z,8.20
2019-02-21T00:06:04.188Z,8.30
2019-02-21T00:11:11.112Z,8.30
2019-02-21T00:16:17.989Z,8.30
2019-02-21T00:21:23.961Z,8.30
2019-02-21T00:26:32.308Z,8.20
2019-02-21T00:31:40.345Z,7.90
2019-02-21T00:36:48.150Z,7.80
2019-02-21T00:41:54.164Z,7.80
2019-02-21T00:47:01.238Z,8.10
2019-02-21T00:52:08.458Z,8.30
2019-02-21T00:57:14.500Z,8.20
2019-02-21T01:02:22.411Z,8.10
2019-02-21T01:07:29.922Z,8.10
2019-02-21T01:12:37.199Z,8.20
2019-02-21T01:17:44.789Z,8.10
2019-02-21T01:22:51.602Z,8.00
2019-02-21T01:27:58.700Z,8.00
2019-02-21T01:33:06.113Z,8.00
2019-02-21T01:38:12.232Z,8.00
2019-02-21T01:43:19.954Z,7.90
2019-02-21T01:48:26.638Z,7.90
2019-02-21T01:53:32.688Z,7.80
2019-02-21T01:58:40.375Z,7.80
2019-02-21T02:03:46.821Z,7.60
2019-02-21T02:08:52.983Z,7.30
2019-02-21T02:13:59.654Z,7.20
2019-02-21T02:19:07.463Z,7.20
2019-02-21T02:24:14.827Z,7.20
2019-02-21T02:29:21.095Z,7.30
2019-02-21T02:34:27.960Z,7.30
2019-02-21T02:39:34.128Z,7.20
2019-02-21T02:44:40.809Z,7.20
2019-02-21T02:49:48.814Z,7.40
2019-02-21T02:54:54.768Z,7.30
2019-02-21T03:00:01.086Z,7.20
2019-02-21T03:05:08.214Z,7.20
2019-02-21T03:10:14.747Z,7.30
2019-02-21T03:15:23.620Z,7.20
2019-02-21T03:20:31.102Z,7.20
2019-02-21T03:25:38.241Z,7.10
2019-02-21T03:30:44.364Z,7.10
2019-02-21T03:35:51.621Z,7.00
2019-02-21T03:40:59.460Z,6.90
2019-02-21T03:46:07.362Z,7.10
2019-02-21T03:51:13.552Z,7.30
2019-02-21T03:56:21.324Z,7.40
2019-02-21T04:01:29.066Z,7.20
2019-02-21T04:06:35.743Z,7.20
2019-02-21T04:11:42.571Z,7.30
2019-02-21T04:16:48.904Z,7.20
2019-02-21T04:21:56.684Z,7.00
2019-02-21T04:27:02.872Z,7.20
2019-02-21T04:32:16.875Z,7.20
2019-02-21T04:37:20.012Z,7.10
2019-02-21T04:42:26.495Z,6.90
2019-02-21T04:47:32.579Z,6.90
2019-02-21T04:52:39.463Z,6.90
2019-02-21T04:57:46.976Z,6.90
2019-02-21T05:02:53.197Z,6.90
2019-02-21T05:08:01.138Z,6.80
2019-02-21T05:13:08.044Z,6.80
2019-02-21T05:18:15.710Z,6.80
2019-02-21T05:23:21.771Z,7.00
2019-02-21T05:28:32.502Z,7.10
2019-02-21T05:33:58.807Z,7.10
2019-02-21T05:39:30.717Z,7.10
2019-02-21T05:45:11.102Z,7.20
2019-02-21T05:50:40.116Z,7.30
2019-02-21T05:56:07.193Z,7.20
2019-02-21T06:01:35.302Z,7.20
2019-02-21T06:07:24.027Z,7.20
2019-02-21T06:12:56.184Z,7.10
2019-02-21T06:18:30.007Z,7.30
2019-02-21T06:23:50.747Z,7.30
2019-02-21T06:29:05.512Z,6.90
2019-02-21T06:34:13.105Z,6.70
2019-02-21T06:39:19.317Z,6.50
2019-02-21T06:44:26.567Z,6.50
2019-02-21T06:49:33.196Z,6.70
2019-02-21T06:54:41.238Z,6.80
2019-02-21T06:59:48.949Z,6.70
2019-02-21T07:04:56.594Z,6.80
2019-02-21T07:10:04.138Z,6.80
2019-02-21T07:15:15.097Z,6.80
2019-02-21T07:20:21.669Z,6.90
2019-02-21T07:25:56.244Z,6.90
2019-02-21T07:31:02.291Z,7.20
2019-02-21T07:36:11.044Z,7.60
2019-02-21T07:41:18.850Z,7.80
2019-02-21T07:46:25.328Z,8.10
2019-02-21T07:51:35.833Z,8.50
2019-02-21T07:56:42.435Z,8.80
2019-02-21T08:01:50.268Z,9.20
2019-02-21T08:06:56.581Z,9.20
2019-02-21T08:12:02.826Z,9.30
2019-02-21T08:17:09.351Z,9.60
2019-02-21T08:22:17.814Z,9.70
2019-02-21T08:27:24.135Z,10.00
2019-02-21T08:32:48.770Z,10.40
2019-02-21T08:37:54.751Z,10.60
2019-02-21T08:43:04.116Z,10.90
2019-02-21T08:48:13.546Z,11.00
2019-02-21T08:53:21.359Z,11.20
2019-02-21T08:58:28.638Z,11.40
2019-02-21T09:03:37.461Z,11.60
2019-02-21T09:08:44.961Z,11.80
2019-02-21T09:13:51.940Z,11.70
2019-02-21T09:18:59.956Z,11.80
2019-02-21T09:24:06.643Z,11.90
2019-02-21T09:29:12.808Z,11.90
2019-02-21T09:34:21.455Z,12.00
2019-02-21T09:39:28.405Z,12.10
2019-02-21T09:44:35.901Z,12.40
2019-02-21T09:49:42.178Z,12.70
2019-02-21T09:54:50.295Z,12.80
2019-02-21T09:59:56.567Z,12.80
2019-02-21T10:05:05.431Z,12.80
2019-02-21T10:10:14.075Z,13.00
2019-02-21T10:15:21.376Z,13.00
2019-02-21T10:20:28.963Z,13.10
2019-02-21T10:25:35.037Z,13.40
2019-02-21T10:30:42.641Z,13.80
2019-02-21T10:35:51.180Z,13.80
2019-02-21T10:41:01.144Z,14.00
2019-02-21T10:46:08.220Z,14.20
2019-02-21T10:51:14.584Z,14.20
2019-02-21T10:56:21.217Z,14.30
2019-02-21T11:01:29.159Z,15.00
2019-02-21T11:06:37.192Z,15.20
2019-02-21T11:11:43.435Z,15.80
2019-02-21T11:16:51.391Z,16.00
2019-02-21T11:21:57.962Z,16.20
2019-02-21T11:27:04.101Z,16.30
2019-02-21T11:32:11.249Z,15.90
2019-02-21T11:37:17.378Z,15.60
2019-02-21T11:42:23.258Z,15.80
2019-02-21T11:47:31.459Z,16.50
2019-02-21T11:52:38.193Z,17.10
2019-02-21T11:57:44.748Z,17.20
2019-02-21T12:02:51.644Z,17.30
2019-02-21T12:07:58.960Z,17.40
2019-02-21T12:13:05.042Z,17.00
2019-02-21T12:18:11.241Z,16.80
2019-02-21T12:23:18.370Z,16.90
2019-02-21T12:28:25.325Z,16.50
2019-02-21T12:33:33.447Z,15.90
2019-02-21T12:38:42.821Z,16.20
2019-02-21T12:43:49.737Z,16.10
2019-02-21T12:48:57.287Z,16.30
2019-02-21T12:54:03.563Z,16.40
2019-02-21T12:59:10.306Z,16.90
2019-02-21T13:04:17.330Z,16.60
2019-02-21T13:09:23.536Z,17.00
2019-02-21T13:14:31.310Z,17.20
2019-02-21T13:19:38.429Z,17.30
2019-02-21T13:24:44.395Z,16.80
2019-02-21T13:29:54.532Z,17.40
2019-02-21T13:35:01.481Z,16.60
2019-02-21T13:40:08.613Z,16.90
2019-02-21T13:45:17.897Z,17.90
2019-02-21T13:50:26.497Z,18.00
2019-02-21T13:55:32.877Z,18.40
2019-02-21T14:00:39.665Z,18.90
2019-02-21T14:05:47.262Z,19.60
2019-02-21T14:10:53.526Z,19.00
2019-02-21T14:16:01.446Z,19.00
2019-02-21T14:21:08.805Z,19.50
2019-02-21T14:26:15.536Z,19.90
2019-02-21T14:31:23.091Z,20.40
2019-02-21T14:36:31.714Z,19.80
2019-02-21T14:41:37.782Z,19.70
2019-02-21T14:46:44.163Z,19.90
2019-02-21T14:51:53.069Z,19.70
2019-02-21T14:57:00.125Z,20.20
2019-02-21T15:02:07.370Z,19.90
2019-02-21T15:07:13.510Z,19.90
2019-02-21T15:12:21.216Z,19.60
2019-02-21T15:17:27.666Z,19.90
2019-02-21T15:22:34.136Z,20.00
2019-02-21T15:27:42.661Z,19.90
2019-02-21T15:32:49.724Z,19.80
2019-02-21T15:37:56.466Z,19.30
2019-02-21T15:43:05.372Z,19.30
2019-02-21T15:48:12.024Z,18.80
2019-02-21T15:53:19.113Z,18.60
2019-02-21T15:58:26.778Z,19.10
2019-02-21T16:03:33.045Z,18.70
2019-02-21T16:08:40.038Z,18.50
2019-02-21T16:14:02.531Z,17.60
2019-02-21T16:19:02.462Z,17.60
2019-02-21T16:24:09.337Z,17.70
2019-02-21T16:29:17.664Z,17.20
2019-02-21T16:34:23.679Z,16.30
2019-02-21T16:39:33.329Z,15.50
2019-02-21T16:44:42.338Z,15.70
2019-02-21T16:49:49.923Z,15.40
2019-02-21T16:54:56.734Z,15.20
2019-02-21T17:00:02.829Z,14.60
2019-02-21T17:05:09.906Z,14.30
2019-02-21T17:10:17.627Z,14.00
2019-02-21T17:15:23.621Z,13.80
2019-02-21T17:20:31.259Z,13.70
2019-02-21T17:25:37.832Z,13.80
2019-02-21T17:30:44.384Z,13.60
2019-02-21T17:35:50.891Z,13.50
2019-02-21T17:40:58.880Z,13.30
2019-02-21T17:46:05.124Z,13.30
2019-02-21T17:51:11.966Z,13.40
2019-02-21T17:56:19.251Z,13.30
2019-02-21T18:01:27.382Z,13.10
2019-02-21T18:06:33.371Z,12.80
2019-02-21T18:11:41.264Z,12.50
2019-02-21T18:16:48.099Z,12.20
2019-02-21T18:21:54.340Z,12.00
2019-02-21T18:27:01.083Z,11.90
2019-02-21T18:32:09.197Z,11.80
2019-02-21T18:37:16.885Z,11.60
2019-02-21T18:42:22.944Z,11.60
2019-02-21T18:47:30.932Z,11.40
2019-02-21T18:52:37.980Z,11.30
2019-02-21T18:57:44.070Z,11.30
2019-02-21T19:02:53.020Z,11.10
2019-02-21T19:08:05.218Z,11.00
2019-02-21T19:13:09.049Z,10.80
2019-02-21T19:18:15.699Z,10.60
2019-02-21T19:23:22.184Z,10.40
2019-02-21T19:28:28.775Z,10.50
2019-02-21T19:33:34.771Z,10.60
2019-02-21T19:38:41.383Z,10.70
2019-02-21T19:43:48.188Z,10.50
2019-02-21T19:48:55.666Z,10.40
2019-02-21T19:54:01.845Z,10.50
2019-02-21T19:59:09.125Z,10.40
2019-02-21T20:04:16.900Z,10.20
2019-02-21T20:09:24.242Z,10.10
2019-02-21T20:14:31.305Z,10.10
2019-02-21T20:19:38.635Z,10.10
2019-02-21T20:24:44.755Z,9.90
2019-02-21T20:29:51.371Z,9.80
2019-02-21T20:34:58.075Z,9.80
2019-02-21T20:40:04.297Z,9.90
2019-02-21T20:45:12.455Z,10.10
2019-02-21T20:50:19.728Z,9.70
2019-02-21T20:55:27.499Z,9.70
2019-02-21T21:00:35.308Z,9.80
2019-02-21T21:05:42.067Z,9.90
2019-02-21T21:10:48.743Z,9.50
2019-02-21T21:15:54.983Z,9.70
2019-02-21T21:21:01.267Z,9.60
2019-02-21T21:26:09.085Z,9.70
2019-02-21T21:31:16.972Z,9.70
2019-02-21T21:36:23.139Z,9.60
2019-02-21T21:41:29.769Z,9.70
2019-02-21T21:46:36.405Z,9.70
2019-02-21T21:51:44.226Z,9.70
2019-02-21T21:56:51.587Z,9.90
2019-02-21T22:01:59.403Z,10.00
2019-02-21T22:07:07.440Z,10.00
2019-02-21T22:12:15.938Z,10.20
2019-02-21T22:17:23.499Z,10.30
2019-02-21T22:22:31.081Z,10.50
2019-02-21T22:27:37.740Z,10.80
2019-02-21T22:32:44.078Z,11.00
2019-02-21T22:37:51.551Z,11.10
2019-02-21T22:42:58.805Z,11.00
2019-02-21T22:48:05.387Z,11.10
2019-02-21T22:53:11.785Z,11.10
2019-02-21T22:58:19.995Z,10.80
2019-02-21T23:03:27.148Z,10.50
2019-02-21T23:08:54.466Z,10.30
2019-02-21T23:14:01.473Z,9.80
2019-02-21T23:19:08.452Z,9.30
2019-02-21T23:24:14.510Z,9.20
2019-02-21T23:29:21.029Z,9.10
2019-02-21T23:34:38.972Z,9.10
2019-02-21T23:39:45.693Z,9.20
2019-02-21T23:44:52.033Z,9.30
2019-02-21T23:50:01.154Z,9.40
2019-02-21T23:55:08.526Z,9.60
